createdAt,value
2019-03-19T00:02:41.925Z,2.90
2019-03-19T00:05:09.120Z,2.83
2019-03-19T00:07:36.225Z,3.40
2019-03-19T00:10:04.385Z,2.93
2019-03-19T00:12:31.472Z,2.70
2019-03-19T00:14:58.573Z,2.93
2019-03-19T00:17:25.733Z,2.70
2019-03-19T00:19:52.867Z,2.97
2019-03-19T00:22:20.426Z,3.13
2019-03-19T00:24:47.579Z,2.47
2019-03-19T00:27:15.058Z,3.50
2019-03-19T00:29:42.169Z,2.83
2019-03-19T00:32:09.362Z,2.50
2019-03-19T00:34:36.474Z,3.10
2019-03-19T00:37:03.964Z,3.07
2019-03-19T00:39:31.141Z,2.80
2019-03-19T00:41:58.236Z,2.67
2019-03-19T00:44:25.336Z,2.83
2019-03-19T00:46:52.515Z,3.20
2019-03-19T00:49:19.623Z,2.57
2019-03-19T00:51:46.732Z,2.60
2019-03-19T00:54:14.193Z,2.87
2019-03-19T00:56:41.310Z,2.57
2019-03-19T00:59:09.022Z,2.80
2019-03-19T01:01:38.651Z,2.90
2019-03-19T01:04:05.203Z,2.53
2019-03-19T01:06:32.842Z,2.77
2019-03-19T01:09:00.220Z,3.10
2019-03-19T01:11:27.315Z,3.10
2019-03-19T01:13:54.440Z,2.93
2019-03-19T01:16:21.609Z,3.07
2019-03-19T01:18:48.709Z,2.83
2019-03-19T01:21:15.804Z,2.63
2019-03-19T01:23:42.968Z,2.87
2019-03-19T01:26:10.105Z,2.67
2019-03-19T01:28:37.219Z,2.27
2019-03-19T01:31:04.350Z,2.97
2019-03-19T01:33:31.463Z,3.17
2019-03-19T01:35:59.357Z,3.43
2019-03-19T01:38:26.700Z,2.60
2019-03-19T01:40:53.812Z,3.03
2019-03-19T01:43:20.887Z,3.30
2019-03-19T01:45:48.396Z,2.83
2019-03-19T01:48:15.476Z,2.40
2019-03-19T01:50:42.894Z,2.70
2019-03-19T01:53:10.524Z,3.03
2019-03-19T01:55:38.000Z,3.83
2019-03-19T01:58:05.087Z,2.80
2019-03-19T02:00:32.242Z,2.97
2019-03-19T02:02:59.363Z,3.53
2019-03-19T02:05:26.466Z,2.80
2019-03-19T02:07:54.049Z,2.93
2019-03-19T02:10:21.127Z,2.90
2019-03-19T02:12:48.205Z,2.87
2019-03-19T02:15:15.562Z,2.77
2019-03-19T02:17:42.652Z,3.80
2019-03-19T02:20:10.325Z,2.97
2019-03-19T02:22:37.865Z,3.47
2019-03-19T02:25:06.142Z,2.83
2019-03-19T02:27:52.479Z,3.00
2019-03-19T02:30:19.313Z,3.03
2019-03-19T02:32:46.050Z,2.73
2019-03-19T02:35:12.857Z,3.03
2019-03-19T02:37:39.693Z,3.27
2019-03-19T02:40:07.157Z,3.40
2019-03-19T02:42:34.049Z,2.97
2019-03-19T02:45:00.787Z,2.90
2019-03-19T02:47:27.434Z,3.57
2019-03-19T02:49:54.108Z,2.83
2019-03-19T02:52:20.849Z,3.20
2019-03-19T02:54:47.594Z,2.57
2019-03-19T02:57:14.509Z,2.53
2019-03-19T02:59:41.137Z,3.10
2019-03-19T03:02:07.992Z,3.13
2019-03-19T03:04:34.977Z,3.10
2019-03-19T03:07:01.739Z,2.90
2019-03-19T03:09:41.308Z,3.23
2019-03-19T03:12:08.307Z,2.90
2019-03-19T03:14:35.052Z,2.90
2019-03-19T03:17:01.922Z,3.17
2019-03-19T03:19:28.547Z,3.83
2019-03-19T03:21:55.184Z,2.70
2019-03-19T03:24:21.903Z,3.20
2019-03-19T03:26:49.033Z,3.13
2019-03-19T03:29:16.111Z,3.37
2019-03-19T03:31:42.868Z,2.80
2019-03-19T03:34:09.619Z,3.93
2019-03-19T03:36:36.357Z,3.40
2019-03-19T03:39:24.809Z,3.23
2019-03-19T03:41:51.453Z,3.20
2019-03-19T03:44:18.292Z,3.43
2019-03-19T03:46:44.967Z,3.63
2019-03-19T03:49:11.617Z,2.93
2019-03-19T03:51:38.239Z,3.00
2019-03-19T03:54:05.118Z,4.00
2019-03-19T03:56:31.841Z,4.03
2019-03-19T03:59:01.081Z,3.33
2019-03-19T04:01:27.284Z,4.00
2019-03-19T04:03:54.063Z,4.30
2019-03-19T04:06:20.943Z,3.50
2019-03-19T04:08:47.734Z,3.00
2019-03-19T04:11:14.603Z,3.37
2019-03-19T04:13:41.376Z,3.07
2019-03-19T04:16:08.305Z,3.03
2019-03-19T04:18:35.158Z,3.23
2019-03-19T04:21:01.937Z,3.33
2019-03-19T04:23:29.122Z,3.33
2019-03-19T04:25:55.805Z,3.53
2019-03-19T04:28:22.879Z,3.00
2019-03-19T04:30:49.848Z,3.60
2019-03-19T04:33:16.968Z,3.90
2019-03-19T04:35:43.582Z,3.90
2019-03-19T04:38:17.778Z,3.37
2019-03-19T04:40:44.411Z,3.40
2019-03-19T04:43:11.204Z,2.77
2019-03-19T04:45:38.174Z,3.13
2019-03-19T04:48:05.074Z,3.10
2019-03-19T04:50:31.766Z,3.83
2019-03-19T04:52:58.454Z,3.33
2019-03-19T04:55:25.182Z,3.37
2019-03-19T04:57:51.915Z,2.80
2019-03-19T05:00:18.881Z,3.20
2019-03-19T05:02:45.605Z,3.40
2019-03-19T05:05:12.348Z,3.50
2019-03-19T05:07:39.249Z,3.20
2019-03-19T05:10:07.954Z,3.70
2019-03-19T05:12:34.924Z,3.77
2019-03-19T05:15:01.813Z,3.10
2019-03-19T05:17:28.937Z,3.03
2019-03-19T05:19:55.681Z,3.97
2019-03-19T05:22:23.128Z,3.50
2019-03-19T05:24:52.875Z,3.67
2019-03-19T05:27:19.941Z,3.67
2019-03-19T05:29:46.905Z,3.50
2019-03-19T05:32:13.828Z,3.60
2019-03-19T05:34:40.463Z,3.33
2019-03-19T05:37:28.647Z,3.53
2019-03-19T05:39:55.736Z,3.50
2019-03-19T05:42:22.814Z,3.03
2019-03-19T05:44:49.951Z,3.00
2019-03-19T05:47:17.029Z,2.63
2019-03-19T05:49:44.152Z,2.77
2019-03-19T05:52:11.446Z,3.23
2019-03-19T05:54:38.560Z,2.67
2019-03-19T05:57:05.649Z,3.40
2019-03-19T05:59:32.776Z,3.60
2019-03-19T06:02:00.561Z,3.00
2019-03-19T06:04:27.664Z,3.10
2019-03-19T06:06:54.879Z,3.73
2019-03-19T06:09:22.783Z,3.40
2019-03-19T06:12:09.072Z,3.10
2019-03-19T06:14:36.682Z,3.10
2019-03-19T06:17:03.437Z,3.33
2019-03-19T06:19:30.516Z,3.33
2019-03-19T06:21:57.149Z,3.40
2019-03-19T06:24:23.893Z,3.60
2019-03-19T06:26:51.406Z,3.10
2019-03-19T06:29:18.249Z,3.10
2019-03-19T06:31:44.892Z,3.37
2019-03-19T06:34:11.794Z,2.90
2019-03-19T06:36:38.817Z,3.17
2019-03-19T06:39:06.893Z,3.00
2019-03-19T06:41:33.691Z,3.40
2019-03-19T06:44:00.324Z,3.30
2019-03-19T06:46:27.325Z,3.07
2019-03-19T06:48:54.202Z,2.77
2019-03-19T06:51:21.463Z,3.20
2019-03-19T06:53:48.268Z,3.30
2019-03-19T06:56:15.464Z,3.57
2019-03-19T06:58:42.306Z,2.97
2019-03-19T07:01:09.043Z,3.23
2019-03-19T07:03:35.944Z,3.10
2019-03-19T07:06:03.055Z,3.00
2019-03-19T07:08:29.688Z,3.30
2019-03-19T07:10:56.779Z,3.17
2019-03-19T07:13:23.792Z,3.50
2019-03-19T07:15:50.686Z,3.13
2019-03-19T07:18:17.389Z,3.40
2019-03-19T07:20:44.122Z,3.00
2019-03-19T07:23:30.753Z,3.27
2019-03-19T07:25:57.861Z,2.87
2019-03-19T07:28:24.987Z,3.70
2019-03-19T07:30:52.148Z,3.60
2019-03-19T07:33:19.237Z,3.57
2019-03-19T07:35:46.590Z,3.10
2019-03-19T07:38:13.810Z,2.70
2019-03-19T07:41:00.393Z,3.03
2019-03-19T07:43:47.031Z,2.87
2019-03-19T07:46:14.471Z,3.23
2019-03-19T07:49:00.885Z,3.43
2019-03-19T07:51:29.194Z,3.57
2019-03-19T07:53:56.370Z,2.87
2019-03-19T07:56:23.263Z,3.20
2019-03-19T07:59:10.162Z,3.83
2019-03-19T08:01:37.697Z,2.97
2019-03-19T08:04:05.162Z,3.83
2019-03-19T08:06:34.249Z,3.67
2019-03-19T08:09:01.480Z,2.90
2019-03-19T08:11:28.764Z,3.37
2019-03-19T08:13:56.269Z,2.77
2019-03-19T08:16:27.643Z,3.27
2019-03-19T08:18:52.375Z,3.27
2019-03-19T08:21:19.163Z,4.17
2019-03-19T08:23:46.570Z,3.33
2019-03-19T08:26:13.596Z,3.53
2019-03-19T08:28:40.585Z,3.10
2019-03-19T08:31:07.686Z,3.73
2019-03-19T08:33:34.433Z,3.93
2019-03-19T08:36:09.033Z,3.60
2019-03-19T08:38:30.391Z,3.10
2019-03-19T08:40:57.467Z,4.03
2019-03-19T08:43:24.567Z,3.20
2019-03-19T08:45:51.782Z,3.23
2019-03-19T08:48:19.255Z,3.47
2019-03-19T08:50:46.344Z,3.47
2019-03-19T08:53:33.406Z,3.10
2019-03-19T08:56:01.174Z,3.83
2019-03-19T08:58:28.631Z,3.23
2019-03-19T09:00:55.760Z,3.53
2019-03-19T09:03:23.029Z,3.53
2019-03-19T09:06:09.537Z,4.27
2019-03-19T09:08:36.476Z,3.23
2019-03-19T09:11:03.338Z,3.93
2019-03-19T09:13:30.498Z,3.30
2019-03-19T09:15:57.775Z,3.30
2019-03-19T09:18:24.838Z,2.97
2019-03-19T09:20:53.999Z,3.50
2019-03-19T09:23:20.624Z,3.33
2019-03-19T09:25:47.778Z,3.60
2019-03-19T09:28:14.732Z,2.97
2019-03-19T09:30:41.799Z,3.23
2019-03-19T09:33:08.763Z,3.33
2019-03-19T09:35:35.686Z,2.77
2019-03-19T09:38:02.579Z,2.87
2019-03-19T09:40:29.362Z,3.70
2019-03-19T09:42:56.424Z,2.90
2019-03-19T09:45:23.596Z,3.17
2019-03-19T09:47:50.597Z,2.60
2019-03-19T09:50:17.948Z,2.70
2019-03-19T09:52:45.579Z,3.00
2019-03-19T09:55:12.607Z,3.03
2019-03-19T09:57:39.935Z,2.50
2019-03-19T10:00:09.270Z,3.00
2019-03-19T10:02:36.568Z,2.93
2019-03-19T10:05:03.994Z,2.53
2019-03-19T10:07:30.852Z,2.80
2019-03-19T10:09:58.311Z,1.93
2019-03-19T10:12:25.494Z,2.33
2019-03-19T10:14:52.228Z,2.20
2019-03-19T10:17:19.011Z,2.43
2019-03-19T10:19:46.081Z,2.20
2019-03-19T10:22:15.162Z,2.17
2019-03-19T10:24:42.053Z,2.67
2019-03-19T10:27:09.401Z,2.53
2019-03-19T10:29:38.491Z,2.43
2019-03-19T10:32:05.652Z,2.40
2019-03-19T10:34:32.911Z,2.67
2019-03-19T10:36:59.983Z,2.17
2019-03-19T10:39:27.947Z,2.57
2019-03-19T10:41:55.281Z,2.70
2019-03-19T10:44:22.378Z,2.40
2019-03-19T10:46:49.682Z,2.40
2019-03-19T10:49:17.263Z,2.60
2019-03-19T10:51:44.543Z,2.87
2019-03-19T10:54:11.612Z,2.33
2019-03-19T10:56:39.114Z,2.10
2019-03-19T10:59:06.678Z,2.40
2019-03-19T11:01:34.062Z,2.17
2019-03-19T11:04:01.549Z,2.50
2019-03-19T11:06:28.969Z,2.07
2019-03-19T11:08:56.475Z,2.20
2019-03-19T11:11:23.627Z,2.13
2019-03-19T11:13:51.042Z,2.23
2019-03-19T11:16:18.567Z,2.10
2019-03-19T11:18:46.207Z,1.90
2019-03-19T11:21:13.757Z,2.27
2019-03-19T11:23:40.833Z,2.23
2019-03-19T11:26:07.986Z,2.70
2019-03-19T11:28:35.427Z,2.30
2019-03-19T11:31:02.530Z,2.30
2019-03-19T11:33:29.899Z,3.03
2019-03-19T11:35:57.452Z,1.87
2019-03-19T11:38:24.578Z,2.40
2019-03-19T11:40:51.808Z,2.30
2019-03-19T11:43:38.541Z,2.20
2019-03-19T11:46:05.969Z,2.70
2019-03-19T11:48:33.088Z,2.47
2019-03-19T11:51:00.581Z,2.47
2019-03-19T11:53:27.847Z,2.30
2019-03-19T11:55:54.944Z,2.30
2019-03-19T11:58:22.067Z,2.40
2019-03-19T12:00:52.791Z,2.83
2019-03-19T12:03:19.906Z,2.87
2019-03-19T12:05:47.441Z,2.30
2019-03-19T12:08:14.622Z,2.47
2019-03-19T12:10:41.702Z,2.23
2019-03-19T12:13:08.802Z,2.43
2019-03-19T12:15:36.383Z,1.90
2019-03-19T12:18:03.496Z,2.90
2019-03-19T12:20:30.919Z,2.20
2019-03-19T12:22:58.332Z,1.87
2019-03-19T12:25:25.589Z,2.20
2019-03-19T12:27:52.967Z,1.90
2019-03-19T12:30:22.563Z,2.10
2019-03-19T12:32:49.240Z,2.00
2019-03-19T12:35:16.433Z,2.33
2019-03-19T12:37:43.663Z,2.07
2019-03-19T12:40:11.826Z,2.07
2019-03-19T12:42:38.942Z,2.10
2019-03-19T12:45:07.493Z,2.50
2019-03-19T12:47:34.606Z,1.87
2019-03-19T12:50:01.761Z,2.37
2019-03-19T12:52:28.948Z,2.03
2019-03-19T12:54:56.072Z,2.17
2019-03-19T12:57:23.143Z,2.60
2019-03-19T12:59:50.351Z,2.40
2019-03-19T13:02:17.443Z,2.20
2019-03-19T13:04:44.936Z,2.13
2019-03-19T13:07:12.461Z,2.37
2019-03-19T13:09:39.864Z,2.47
2019-03-19T13:12:07.023Z,2.10
2019-03-19T13:14:34.283Z,1.97
2019-03-19T13:17:01.788Z,2.07
2019-03-19T13:19:48.443Z,2.17
2019-03-19T13:22:15.600Z,2.17
2019-03-19T13:24:42.814Z,2.50
2019-03-19T13:27:30.019Z,2.30
2019-03-19T13:29:57.467Z,2.10
2019-03-19T13:32:24.632Z,2.47
2019-03-19T13:34:52.224Z,2.10
2019-03-19T13:37:19.355Z,2.23
2019-03-19T13:39:46.440Z,2.70
2019-03-19T13:42:13.803Z,2.57
2019-03-19T13:44:41.231Z,2.03
2019-03-19T13:47:08.317Z,1.93
2019-03-19T13:49:35.672Z,2.30
2019-03-19T13:52:02.752Z,2.30
2019-03-19T13:54:29.839Z,1.83
2019-03-19T13:56:57.041Z,2.10
2019-03-19T13:59:24.332Z,2.37
2019-03-19T14:01:51.541Z,2.13
2019-03-19T14:04:21.056Z,2.00
2019-03-19T14:06:47.714Z,1.90
2019-03-19T14:09:14.792Z,2.70
2019-03-19T14:11:42.392Z,2.07
2019-03-19T14:14:09.482Z,1.77
2019-03-19T14:16:36.571Z,2.10
2019-03-19T14:19:04.290Z,1.80
2019-03-19T14:21:31.371Z,2.03
2019-03-19T14:23:58.460Z,1.90
2019-03-19T14:26:25.971Z,2.17
2019-03-19T14:28:53.062Z,1.80
2019-03-19T14:31:20.173Z,1.97
2019-03-19T14:33:47.393Z,2.03
2019-03-19T14:36:14.519Z,1.90
2019-03-19T14:38:47.077Z,1.67
2019-03-19T14:41:11.020Z,1.77
2019-03-19T14:43:38.143Z,1.80
2019-03-19T14:46:05.560Z,1.80
2019-03-19T14:48:32.920Z,2.10
2019-03-19T14:51:00.026Z,2.07
2019-03-19T14:53:27.526Z,2.10
2019-03-19T14:55:54.788Z,2.07
2019-03-19T14:58:21.887Z,1.50
2019-03-19T15:00:49.018Z,1.73
2019-03-19T15:03:16.465Z,2.00
2019-03-19T15:05:43.895Z,1.63
2019-03-19T15:08:11.452Z,1.60
2019-03-19T15:10:38.593Z,2.10
2019-03-19T15:13:06.087Z,2.47
2019-03-19T15:15:33.179Z,1.80
2019-03-19T15:18:00.663Z,2.13
2019-03-19T15:20:27.755Z,1.90
2019-03-19T15:22:55.232Z,1.83
2019-03-19T15:25:42.030Z,2.13
2019-03-19T15:28:09.166Z,2.30
2019-03-19T15:30:36.272Z,1.67
2019-03-19T15:33:03.483Z,2.07
2019-03-19T15:35:49.940Z,1.90
2019-03-19T15:38:17.096Z,1.70
2019-03-19T15:40:44.061Z,1.80
2019-03-19T15:43:10.829Z,2.00
2019-03-19T15:45:37.821Z,1.83
2019-03-19T15:48:04.580Z,1.67
2019-03-19T15:50:31.469Z,1.70
2019-03-19T15:52:58.496Z,2.30
2019-03-19T15:55:25.655Z,2.50
2019-03-19T15:57:52.470Z,2.80
2019-03-19T16:00:19.409Z,2.33
2019-03-19T16:02:46.278Z,1.97
2019-03-19T16:05:13.138Z,2.23
2019-03-19T16:07:40.400Z,2.30
2019-03-19T16:10:28.936Z,1.63
2019-03-19T16:12:56.476Z,2.30
2019-03-19T16:15:23.682Z,2.30
2019-03-19T16:17:50.983Z,2.37
2019-03-19T16:20:18.495Z,2.20
2019-03-19T16:22:47.279Z,2.40
2019-03-19T16:25:14.736Z,2.30
2019-03-19T16:28:01.760Z,2.40
2019-03-19T16:30:41.737Z,1.97
2019-03-19T16:33:08.702Z,1.90
2019-03-19T16:35:35.833Z,2.17
2019-03-19T16:38:03.490Z,1.80
2019-03-19T16:40:31.726Z,1.50
2019-03-19T16:42:58.478Z,2.77
2019-03-19T16:45:25.355Z,2.03
2019-03-19T16:47:52.482Z,1.93
2019-03-19T16:50:19.223Z,1.93
2019-03-19T16:52:46.094Z,2.00
2019-03-19T16:55:13.315Z,2.60
2019-03-19T16:57:40.146Z,2.57
2019-03-19T17:00:09.554Z,2.60
2019-03-19T17:02:36.690Z,2.20
2019-03-19T17:05:04.480Z,1.70
2019-03-19T17:07:31.177Z,2.13
2019-03-19T17:09:58.329Z,2.07
2019-03-19T17:12:25.075Z,2.70
2019-03-19T17:14:51.979Z,2.53
2019-03-19T17:17:19.616Z,2.63
2019-03-19T17:19:46.735Z,2.20
2019-03-19T17:22:33.336Z,2.00
2019-03-19T17:25:01.005Z,2.17
2019-03-19T17:27:28.495Z,1.93
2019-03-19T17:29:55.706Z,1.90
2019-03-19T17:32:23.184Z,1.70
2019-03-19T17:34:50.742Z,1.80
2019-03-19T17:37:17.955Z,2.40
2019-03-19T17:39:45.049Z,3.30
2019-03-19T17:42:12.139Z,4.83
2019-03-19T17:44:39.319Z,5.77
2019-03-19T17:47:06.531Z,5.40
2019-03-19T17:49:33.803Z,4.60
2019-03-19T17:52:00.951Z,4.53
2019-03-19T17:54:28.775Z,3.57
2019-03-19T17:56:55.873Z,3.40
2019-03-19T17:59:23.098Z,3.53
2019-03-19T18:01:50.218Z,3.13
2019-03-19T18:04:17.313Z,3.30
2019-03-19T18:06:44.506Z,3.20
2019-03-19T18:09:11.964Z,3.40
2019-03-19T18:11:39.063Z,3.70
2019-03-19T18:14:07.637Z,3.37
2019-03-19T18:16:35.209Z,3.60
2019-03-19T18:19:21.509Z,4.23
2019-03-19T18:21:48.808Z,4.33
2019-03-19T18:24:15.579Z,4.50
2019-03-19T18:26:42.450Z,4.10
2019-03-19T18:29:10.584Z,3.53
2019-03-19T18:31:38.209Z,3.63
2019-03-19T18:34:10.348Z,2.80
2019-03-19T18:36:34.166Z,2.40
2019-03-19T18:39:01.079Z,2.83
2019-03-19T18:41:27.793Z,2.93
2019-03-19T18:43:56.062Z,2.97
2019-03-19T18:46:22.824Z,2.47
2019-03-19T18:48:50.336Z,2.57
2019-03-19T18:51:16.970Z,2.40
2019-03-19T18:53:43.742Z,2.40
2019-03-19T18:56:11.065Z,2.53
2019-03-19T18:58:38.093Z,2.40
2019-03-19T19:01:05.300Z,2.10
2019-03-19T19:03:32.377Z,2.10
2019-03-19T19:05:59.208Z,2.30
2019-03-19T19:08:46.095Z,2.40
2019-03-19T19:11:13.181Z,2.50
2019-03-19T19:13:40.273Z,2.10
2019-03-19T19:16:07.421Z,2.10
2019-03-19T19:18:34.520Z,1.93
2019-03-19T19:21:01.626Z,2.30
2019-03-19T19:23:28.780Z,2.37
2019-03-19T19:25:56.310Z,2.30
2019-03-19T19:28:23.413Z,2.50
2019-03-19T19:30:50.593Z,2.43
2019-03-19T19:33:17.863Z,2.47
2019-03-19T19:35:45.178Z,2.60
2019-03-19T19:38:12.461Z,2.27
2019-03-19T19:40:39.579Z,3.00
2019-03-19T19:48:44.693Z,2.60
2019-03-19T19:51:11.843Z,2.70
2019-03-19T19:57:01.459Z,3.50
2019-03-19T19:59:28.582Z,3.23
2019-03-19T20:01:55.672Z,3.33
2019-03-19T20:04:22.835Z,3.60
2019-03-19T20:06:49.929Z,3.63
2019-03-19T20:09:17.040Z,3.97
2019-03-19T20:11:44.277Z,2.97
2019-03-19T20:14:11.347Z,3.40
2019-03-19T20:16:38.445Z,3.57
2019-03-19T20:19:05.637Z,3.50
2019-03-19T20:21:33.243Z,3.47
2019-03-19T20:24:00.358Z,3.30
2019-03-19T20:26:27.597Z,3.97
2019-03-19T20:28:54.767Z,3.70
2019-03-19T20:31:21.875Z,3.27
2019-03-19T20:33:49.124Z,3.80
2019-03-19T20:36:16.304Z,3.53
2019-03-19T20:38:43.382Z,3.33
2019-03-19T20:41:10.531Z,3.53
2019-03-19T20:43:37.660Z,3.67
2019-03-19T20:46:04.756Z,3.10
2019-03-19T20:48:32.342Z,3.53
2019-03-19T20:50:59.453Z,3.70
2019-03-19T20:53:26.907Z,3.30
2019-03-19T20:55:54.108Z,3.63
2019-03-19T20:58:21.215Z,3.73
2019-03-19T21:00:48.352Z,3.20
2019-03-19T21:03:15.531Z,3.07
2019-03-19T21:05:42.652Z,3.03
2019-03-19T21:08:10.278Z,3.50
2019-03-19T21:10:37.411Z,3.70
2019-03-19T21:13:04.537Z,3.33
2019-03-19T21:15:31.730Z,3.67
2019-03-19T21:17:59.429Z,3.63
2019-03-19T21:20:26.530Z,3.90
2019-03-19T21:22:53.610Z,3.50
2019-03-19T21:25:20.953Z,3.70
2019-03-19T21:27:48.058Z,3.17
2019-03-19T21:30:15.421Z,3.43
2019-03-19T21:32:42.644Z,3.80
2019-03-19T21:35:10.034Z,3.87
2019-03-19T21:37:50.121Z,3.57
2019-03-19T21:40:17.436Z,4.03
2019-03-19T21:43:25.456Z,4.47
2019-03-19T21:45:52.655Z,5.07
2019-03-19T21:48:19.776Z,4.23
2019-03-19T21:50:47.015Z,4.00
2019-03-19T21:53:14.494Z,4.80
2019-03-19T21:55:41.979Z,4.43
2019-03-19T21:58:09.137Z,3.80
2019-03-19T22:00:36.253Z,4.70
2019-03-19T22:03:22.952Z,4.13
2019-03-19T22:05:50.855Z,4.30
2019-03-19T22:08:17.960Z,4.23
2019-03-19T22:10:45.103Z,4.80
2019-03-19T22:13:12.523Z,4.17
2019-03-19T22:15:39.774Z,3.53
2019-03-19T22:18:07.017Z,3.67
2019-03-19T22:20:34.046Z,4.37
2019-03-19T22:23:01.132Z,3.83
2019-03-19T22:25:28.302Z,3.37
2019-03-19T22:27:55.427Z,4.13
2019-03-19T22:30:22.613Z,4.07
2019-03-19T22:32:50.568Z,4.33
2019-03-19T22:35:18.025Z,3.37
2019-03-19T22:37:45.929Z,4.00
2019-03-19T22:40:13.742Z,3.53
2019-03-19T22:42:41.496Z,3.57
2019-03-19T22:45:50.536Z,3.77
2019-03-19T22:48:17.646Z,3.40
2019-03-19T22:50:44.617Z,3.50
2019-03-19T22:53:11.626Z,3.63
2019-03-19T22:55:38.887Z,3.83
2019-03-19T22:58:06.151Z,3.70
2019-03-19T23:00:53.126Z,3.30
2019-03-19T23:03:20.774Z,4.33
2019-03-19T23:05:47.954Z,4.00
2019-03-19T23:08:16.004Z,4.00
2019-03-19T23:10:43.924Z,4.13
2019-03-19T23:13:13.073Z,3.93
2019-03-19T23:15:40.749Z,3.70
2019-03-19T23:18:08.339Z,3.50
2019-03-19T23:20:35.673Z,4.13
2019-03-19T23:23:02.902Z,3.77
2019-03-19T23:25:30.008Z,3.73
2019-03-19T23:28:16.927Z,4.10
2019-03-19T23:31:03.610Z,4.20
2019-03-19T23:33:33.556Z,4.17
2019-03-19T23:36:01.069Z,3.90
2019-03-19T23:38:28.144Z,4.93
2019-03-19T23:41:07.864Z,4.40
2019-03-19T23:43:35.445Z,4.27
2019-03-19T23:46:02.996Z,4.00
2019-03-19T23:48:30.775Z,4.30
2019-03-19T23:50:58.376Z,4.13
2019-03-19T23:53:26.152Z,4.20
2019-03-19T23:55:53.777Z,4.27
2019-03-19T23:58:21.029Z,3.87
